• Join FlightAware (Why Join?)
  • Login
  • US Flag 
02:47PM EDT


 

Airport Tracker/Info


-or-


 

Live Flight TrackerFlight Track Log ✈ NKS817 ✈ 10-May-2013 ✈ KDFW - KLAS

Flight Track Log - Related Links

Times and Time Zones

All times are in EDT time to prevent confusion due to time zone crossing. See the NKS817 flight status page for this flight to view local times or setup timezone preferences in your user account.

Time Position Orientation Groundspeed Altitude Reporting Facility
EDT Latitude Longitude Course Direction KTS MPH feet Rate Location/Type
12:45AM 32.9220 -97.0310 355° North 149 171 1,800  Level FlightAware
12:45AM 32.9460 -97.0350 352° North 182 209 2,600 1,680 Climbing FlightAware
12:46AM 32.9710 -97.0500 333° Northwest 224 258 3,500 2,160 Climbing FlightAware
12:46AM 32.9980 -97.0700 328° Northwest 253 291 4,800 3,240 Climbing FlightAware
12:47AM 33.0220 -97.0940 320° Northwest 256 295 6,500 4,020 Climbing FlightAware
12:47AM 33.0390 -97.1010 341° North 257 296 7,500 3,600 Climbing FlightAware
12:48AM 33.0760 -97.1030 357° North 272 313 9,200 3,120 Climbing FlightAware
12:48AM 33.0890 -97.1040 356° North 278 320 9,600 2,520 Climbing FlightAware
12:48AM 33.1280 -97.1130 349° North 295 339 10,900 2,400 Climbing FlightAware
12:49AM 33.1420 -97.1290 316° Northwest 302 348 11,400 2,160 Climbing FlightAware
12:49AM 33.1490 -97.1450 298° West 308 354 11,800 2,160 Climbing FlightAware
12:49AM 33.1530 -97.1700 281° West 317 365 12,300 2,100 Climbing FlightAware
12:49AM 33.1390 -97.2220 252° West 341 392 13,400 2,280 Climbing FlightAware
12:50AM 33.1130 -97.2770 241° Southwest 354 407 14,800 2,880 Climbing FlightAware
12:51AM 33.0690 -97.3520 235° Southwest 347 399 17,300 2,700 Climbing FlightAware
12:52AM 33.0310 -97.4230 237° Southwest 362 417 18,900 2,160 Climbing FlightAware
12:52AM 33.0090 -97.4830 246° West 366 421 20,200 2,220 Climbing FlightAware
12:53AM 33.0270 -97.5770 283° West 380 437 21,900 2,580 Climbing FlightAware
12:54AM 33.0480 -97.6660 286° West 367 422 24,100 2,100 Climbing FlightAware
12:54AM 33.0690 -97.7560 286° West 384 442 25,100 1,320 Climbing FlightAware
12:55AM 33.0880 -97.8380 285° West 398 458 26,000 1,380 Climbing FlightAware
12:56AM 33.1060 -97.9180 285° West 401 461 27,000 1,500 Climbing FlightAware
12:56AM 33.1300 -98.0220 285° West 414 476 28,200 1,560 Climbing FlightAware
12:57AM 33.1460 -98.0880 286° West 413 475 29,000 1,500 Climbing FlightAware
12:58AM 33.1690 -98.1900 285° West 415 478 30,200 1,380 Climbing FlightAware
12:59AM 33.2010 -98.3310 285° West 421 484 31,600 1,680 Climbing FlightAware
01:00AM 33.2270 -98.4450 285° West 408 470 33,300 1,440 Climbing FlightAware
01:00AM 33.2510 -98.5510 285° West 399 459 34,000 360 Climbing FlightAware
01:01AM 33.2770 -98.6680 285° West 408 470 34,000  Level FlightAware
01:02AM 33.2960 -98.7530 285° West 409 471 34,000  Level FlightAware
01:03AM 33.3190 -98.8540 285° West 408 470 34,000  Level FlightAware
01:03AM 33.3380 -98.9430 284° West 405 466 34,000  Level FlightAware
01:04AM 33.3600 -99.0430 285° West 408 470 34,000  Level FlightAware
01:05AM 33.3790 -99.1360 284° West 408 470 34,000  Level FlightAware
01:06AM 33.3950 -99.2110 284° West 408 470 34,000  Level FlightAware
01:06AM 33.4100 -99.2860 283° West 408 470 34,000  Level FlightAware
01:07AM 33.4260 -99.3600 285° West 408 470 34,000  Level FlightAware
01:08AM 33.4410 -99.4350 283° West 408 470 34,000  Level FlightAware
01:09AM 33.4610 -99.5280 284° West 408 470 34,000  Level FlightAware
01:09AM 33.4760 -99.6030 284° West 408 470 34,000  Level FlightAware
01:10AM 33.4920 -99.6770 285° West 408 470 34,000  Level FlightAware
01:11AM 33.5070 -99.7520 284° West 408 470 34,000  Level FlightAware
01:11AM 33.5230 -99.8270 284° West 408 470 34,000  Level FlightAware
01:12AM 33.5420 -99.9200 284° West 408 470 34,000  Level FlightAware
01:13AM 33.5580 -99.9950 284° West 408 470 34,000  Level FlightAware
01:13AM 33.5730 -100.0700 284° West 408 470 34,000  Level FlightAware
01:14AM 33.6350 -100.3194 284° West 397 457 34,000  Level Albuquerque Center
01:15AM 33.6619 -100.4508 284° West 403 464 34,000  Level Albuquerque Center
01:16AM 33.6886 -100.5819 284° West 405 466 34,000  Level Albuquerque Center
01:17AM 33.7161 -100.7122 284° West 403 464 34,000 240 Level Albuquerque Center
01:18AM 33.7461 -100.8564 284° West 402 463 34,600 600 Climbing Albuquerque Center
01:19AM 33.7722 -100.9864 284° West 403 464 35,300 660 Climbing Albuquerque Center
01:20AM 33.7994 -101.1236 283° West 415 478 36,000 300 Climbing Albuquerque Center
01:21AM 33.8275 -101.2603 284° West 420 483 36,000  Level Albuquerque Center
01:22AM 33.8547 -101.3956 284° West 420 483 36,000  Level Albuquerque Center
01:23AM 33.8858 -101.5492 284° West 416 479 36,000  Level Fort Worth Center
01:24AM 33.9108 -101.6731 284° West 416 479 36,000  Level Fort Worth Center
01:25AM 33.9389 -101.8244 283° West 416 479 36,000  Level Fort Worth Center
01:27AM 33.9894 -102.0792 284° West 424 488 36,000  Level Albuquerque Center
01:28AM 34.0161 -102.2175 283° West 425 489 36,000  Level Albuquerque Center
01:29AM 34.0431 -102.3564 283° West 426 490 36,000  Level Albuquerque Center
01:30AM 34.0692 -102.4953 283° West 427 491 36,000  Level Albuquerque Center
01:31AM 34.0997 -102.6589 283° West 422 486 36,000  Level Albuquerque Center
01:32AM 34.1258 -102.7914 283° West 414 476 36,000  Level Albuquerque Center
01:33AM 34.1514 -102.9278 283° West 415 478 36,000  Level Albuquerque Center
01:34AM 34.1781 -103.0686 283° West 419 482 36,000  Level Albuquerque Center
01:35AM 34.2033 -103.2011 283° West 419 482 36,000  Level Albuquerque Center
01:36AM 34.2264 -103.3386 282° West 420 483 36,000 120 Level Albuquerque Center
01:37AM 34.2536 -103.4836 283° West 418 481 36,300 540 Climbing Albuquerque Center
01:38AM 34.2786 -103.6281 282° West 428 493 37,200 840 Climbing Albuquerque Center
01:39AM 34.3031 -103.7742 281° West 435 501 38,000 360 Climbing Albuquerque Center
01:40AM 34.3286 -103.9156 282° West 430 495 38,000  Level Albuquerque Center
01:41AM 34.3536 -104.0572 282° West 427 491 38,000  Level Albuquerque Center
01:42AM 34.3786 -104.2028 282° West 432 497 38,000  Level Albuquerque Center
01:43AM 34.4042 -104.3481 282° West 435 501 38,000  Level Albuquerque Center
01:45AM 34.4297 -104.4928 282° West 435 501 38,000  Level Albuquerque Center
01:46AM 34.4506 -104.6144 282° West 436 502 38,000  Level Albuquerque Center
01:47AM 34.4756 -104.7619 282° West 440 506 38,000  Level Albuquerque Center
01:48AM 34.5000 -104.9064 282° West 436 502 38,000  Level Albuquerque Center
01:53AM 34.6260 -105.6740 282° West 445 512 38,000  Level FlightAware
01:53AM 34.6450 -105.7920 281° West 443 510 38,000  Level FlightAware
01:54AM 34.6610 -105.8930 281° West 441 507 38,000  Level FlightAware
01:55AM 34.6750 -105.9820 281° West 442 509 38,000  Level FlightAware
01:56AM 34.6930 -106.0930 281° West 440 506 38,000  Level FlightAware
01:56AM 34.7080 -106.1930 280° West 441 507 38,000  Level FlightAware
01:57AM 34.7230 -106.2890 281° West 441 507 38,000  Level FlightAware
01:58AM 34.7410 -106.4010 281° West 440 506 38,000  Level FlightAware
01:58AM 34.7560 -106.4980 281° West 440 506 38,000  Level FlightAware
01:59AM 34.7720 -106.6070 280° West 441 507 38,000  Level FlightAware
02:00AM 34.7870 -106.7030 281° West 441 507 38,000  Level FlightAware
02:00AM 34.8020 -106.8020 280° West 442 509 38,000  Level FlightAware
02:01AM 34.8190 -106.9130 281° West 444 511 38,000  Level FlightAware
02:02AM 34.8340 -107.0120 280° West 445 512 38,000  Level FlightAware
02:03AM 34.8490 -107.1180 280° West 446 513 38,000  Level FlightAware
02:03AM 34.8640 -107.2180 280° West 446 513 38,000  Level FlightAware
02:04AM 34.8810 -107.3320 280° West 446 513 38,000  Level FlightAware
02:05AM 34.8960 -107.4320 280° West 445 512 38,000  Level FlightAware
02:05AM 34.9100 -107.5310 280° West 444 511 38,000  Level FlightAware
02:06AM 34.9240 -107.6270 280° West 443 510 38,000  Level FlightAware
02:07AM 34.9400 -107.7370 280° West 442 509 38,000  Level FlightAware
02:07AM 34.9550 -107.8490 279° West 444 511 38,000  Level FlightAware
02:08AM 34.9690 -107.9480 280° West 446 513 38,000  Level FlightAware
02:09AM 34.9830 -108.0460 280° West 448 516 38,000  Level FlightAware
02:10AM 34.9990 -108.1560 280° West 448 516 38,000 60 Level FlightAware
02:10AM 35.0130 -108.2550 280° West 447 514 38,100  Climbing FlightAware
02:11AM 35.0260 -108.3530 279° West 445 512 38,000 -120 Descending FlightAware
02:12AM 35.0420 -108.4680 280° West 444 511 38,000  Level FlightAware
02:12AM 35.0550 -108.5630 280° West 443 510 38,000  Level FlightAware
02:13AM 35.0700 -108.6750 279° West 442 509 38,000  Level FlightAware
02:14AM 35.0830 -108.7720 279° West 442 509 38,000  Level FlightAware
02:14AM 35.0960 -108.8710 279° West 445 512 38,000  Level FlightAware
02:15AM 35.1100 -108.9730 280° West 448 516 38,000  Level FlightAware
02:16AM 35.1240 -109.0820 279° West 448 516 38,000  Level FlightAware
02:17AM 35.1400 -109.1980 280° West 451 519 38,000  Level FlightAware
02:17AM 35.1530 -109.2990 279° West 452 520 38,000  Level FlightAware
02:18AM 35.1660 -109.4020 279° West 454 522 38,000  Level FlightAware
02:19AM 35.1800 -109.5110 279° West 455 524 38,000  Level FlightAware
02:19AM 35.1930 -109.6140 279° West 455 524 38,000  Level FlightAware
02:20AM 35.2070 -109.7290 279° West 456 525 38,000  Level FlightAware
02:21AM 35.2200 -109.8320 279° West 456 525 38,000  Level FlightAware
02:21AM 35.2340 -109.9420 279° West 455 524 38,000  Level FlightAware
02:22AM 35.2470 -110.0460 279° West 455 524 38,000  Level FlightAware
02:23AM 35.2590 -110.1490 278° West 457 526 38,000  Level FlightAware
02:24AM 35.2740 -110.2650 279° West 459 528 38,000  Level FlightAware
02:24AM 35.2860 -110.3700 278° West 460 529 38,000  Level FlightAware
02:25AM 35.3000 -110.4810 279° West 462 532 38,000  Level FlightAware
02:26AM 35.3120 -110.5840 278° West 461 531 38,000 60 Level FlightAware
02:26AM 35.3240 -110.6890 278° West 458 527 38,100 60 Climbing FlightAware
02:27AM 35.3380 -110.8060 278° West 454 522 38,100 -120 Level FlightAware
02:28AM 35.3490 -110.9070 278° West 449 517 38,000 -120 Descending FlightAware
02:28AM 35.3610 -111.0070 278° West 447 514 38,000  Level FlightAware
02:29AM 35.3740 -111.1160 278° West 447 514 38,000  Level FlightAware
02:30AM 35.3850 -111.2190 277° West 449 517 38,000 -120 Level FlightAware
02:31AM 35.3980 -111.3290 278° West 453 521 37,900 -300 Descending FlightAware
02:31AM 35.4100 -111.4360 278° West 458 527 37,600 -900 Descending FlightAware
02:32AM 35.4210 -111.5390 277° West 459 528 36,700 -1,800 Descending FlightAware
02:33AM 35.4330 -111.6520 277° West 451 519 35,100 -2,580 Descending FlightAware
02:33AM 35.4440 -111.7540 278° West 458 527 33,100 -3,060 Descending FlightAware
02:34AM 35.4570 -111.8700 278° West 456 525 30,800 -2,220 Descending FlightAware
02:35AM 35.4680 -111.9750 277° West 464 534 30,000 -660 Descending FlightAware
02:35AM 35.4800 -112.0890 277° West 460 529 29,900 -1,140 Descending FlightAware
02:36AM 35.4910 -112.1910 278° West 453 521 28,400 -1,680 Descending FlightAware
02:37AM 35.5010 -112.2920 277° West 441 507 27,700 -1,020 Descending FlightAware
02:38AM 35.5130 -112.4060 277° West 437 503 27,000 -960 Descending FlightAware
02:38AM 35.5230 -112.5030 277° West 434 499 26,400 -900 Descending FlightAware
02:39AM 35.5330 -112.6010 277° West 435 501 25,800 -960 Descending FlightAware
02:40AM 35.5440 -112.7080 277° West 434 499 25,100 -960 Descending FlightAware
02:40AM 35.5530 -112.8060 276° West 430 495 24,500 -900 Descending FlightAware
02:41AM 35.5650 -112.9170 278° West 427 491 23,900 -900 Descending FlightAware
02:42AM 35.5740 -113.0130 277° West 425 489 23,300 -960 Descending FlightAware
02:42AM 35.5840 -113.1160 277° West 421 484 22,600 -900 Descending FlightAware
02:43AM 35.5930 -113.2080 277° West 418 481 22,100 -840 Descending FlightAware
02:44AM 35.6020 -113.3040 277° West 410 472 21,500 -960 Descending FlightAware
02:45AM 35.6120 -113.4090 277° West 404 465 20,800 -900 Descending FlightAware
02:45AM 35.6200 -113.5010 276° West 407 468 20,300 -960 Descending FlightAware
02:46AM 35.6330 -113.6000 279° West 402 463 19,500 -1,200 Descending FlightAware
02:47AM 35.6450 -113.6890 279° West 392 451 18,600 -1,440 Descending FlightAware
02:47AM 35.6580 -113.7770 280° West 392 451 17,600 -1,380 Descending FlightAware
02:48AM 35.6720 -113.8770 280° West 385 443 16,700 -1,200 Descending FlightAware
02:49AM 35.6840 -113.9620 280° West 379 436 15,900 -1,200 Descending FlightAware
02:49AM 35.6970 -114.0570 280° West 379 436 15,000 -1,320 Descending FlightAware
02:50AM 35.7060 -114.1210 280° West 380 437 14,300 -1,200 Descending FlightAware
02:51AM 35.7220 -114.2340 280° West 348 400 13,300 -840 Descending FlightAware
02:51AM 35.7300 -114.2980 279° West 343 395 13,100 -180 Descending FlightAware
02:52AM 35.7390 -114.3640 280° West 343 395 13,100 -1,800 Level FlightAware
02:52AM 35.7870 -114.3860 340° North 308 354 11,300 -2,520 Descending FlightAware
02:53AM 35.8240 -114.4480 306° West 299 344 10,400 -1,200 Descending FlightAware
02:54AM 35.8440 -114.4830 305° West 302 348 9,900 -600 Descending FlightAware
02:54AM 35.8690 -114.5240 307° West 287 330 9,900  Level FlightAware
02:55AM 35.8870 -114.5540 307° West 262 302 9,900  Level FlightAware
02:55AM 35.9080 -114.5890 307° West 253 291 9,900  Level FlightAware
02:56AM 35.9290 -114.6240 307° West 253 291 9,900  Level FlightAware
02:56AM 35.9470 -114.6550 306° West 253 291 9,900 -600 Level FlightAware
02:56AM 35.9680 -114.6890 307° West 249 287 9,400 -1,200 Descending FlightAware
02:57AM 35.9840 -114.7170 305° West 249 287 8,800 -1,440 Descending FlightAware
02:57AM 36.0040 -114.7500 307° West 246 283 8,100 -1,560 Descending FlightAware
02:58AM 36.0220 -114.7800 307° West 239 275 7,400 -1,500 Descending FlightAware
02:58AM 36.0310 -114.7940 308° West 239 275 7,100 -1,200 Descending FlightAware
02:59AM 36.0510 -114.8290 305° West 239 275 6,500 -960 Descending FlightAware
02:59AM 36.0600 -114.8450 305° West 236 272 6,400 -300 Descending FlightAware
02:59AM 36.0720 -114.8760 296° West 243 280 6,300 -900 Descending FlightAware
03:00AM 36.0730 -114.9190 272° West 250 288 5,600 -1,740 Descending FlightAware
03:00AM 36.0730 -114.9540 270° West 230 265 4,700 -1,800 Descending FlightAware
03:01AM 36.0730 -114.9910 270° West 203 234 4,000 -1,140 Descending FlightAware
03:01AM 36.0740 -115.0320 272° West 164 189 3,400 -900 Descending FlightAware
03:02AM 36.0740 -115.0440 270° West 153 176 3,200 -900 Descending FlightAware
03:02AM 36.0740 -115.0610 270° West 149 171 2,900 -780 Descending FlightAware
03:02AM 36.0740 -115.0910 270° West 144 166 2,500 -780 Descending FlightAware
03:03AM 36.0740 -115.1160 270° West 139 160 2,100 -660 Descending FlightAware
03:03AM 36.0740 -115.1340 270° West 137 158 1,900 -480 Descending FlightAware